Time;durP1;ratioP1;P1;durP2;ratioP2;P2;SDS_P1;SDS_P2;PMS_P1;PMS_P2;Temp;Humidity;BMP_temperature;BMP_pressure;BME280_temperature;BME280_humidity;BME280_pressure;Samples;Min_cycle;Max_cycle;Signal;HPM_P1;HPM_P2
2023/12/24 00:01:29;;;;;;;7.53;1.77;;;;;;;9.24;100.00;100770.94;5036415;28;20033;-75
2023/12/24 00:03:54;;;;;;;8.88;1.42;;;;;;;9.23;100.00;100767.47;5034829;28;20297;-75
2023/12/24 00:06:20;;;;;;;9.70;2.00;;;;;;;9.24;100.00;100765.72;5030106;28;20043;-75
2023/12/24 00:08:46;;;;;;;15.35;2.00;;;;;;;9.25;100.00;100743.88;5035351;28;20279;-75
2023/12/24 00:11:11;;;;;;;12.68;1.80;;;;;;;9.25;100.00;100732.59;5031791;28;20029;-75
2023/12/24 00:13:37;;;;;;;8.80;2.15;;;;;;;9.23;100.00;100736.09;5028305;28;20033;-75
2023/12/24 00:16:02;;;;;;;10.30;1.90;;;;;;;9.25;100.00;100715.16;5023768;28;20064;-75
2023/12/24 00:18:28;;;;;;;14.52;2.22;;;;;;;9.25;100.00;100722.13;5027208;28;20273;-75
2023/12/24 00:20:53;;;;;;;12.95;1.88;;;;;;;9.25;100.00;100728.22;5027497;28;20301;-75
2023/12/24 00:23:19;;;;;;;13.82;1.75;;;;;;;9.26;100.00;100711.63;5019425;28;20105;-75
2023/12/24 00:25:44;;;;;;;7.07;1.73;;;;;;;9.26;100.00;100708.16;5015637;28;20042;-75
2023/12/24 00:28:10;;;;;;;19.58;1.98;;;;;;;9.26;100.00;100716.00;5016043;28;20037;-75
2023/12/24 00:30:35;;;;;;;9.63;2.15;;;;;;;9.29;100.00;100726.34;5015780;28;20034;-75
2023/12/24 00:33:00;;;;;;;8.45;2.20;;;;;;;9.28;100.00;100724.63;5016239;28;20046;-75
2023/12/24 00:35:27;;;;;;;12.40;2.00;;;;;;;9.26;100.00;100727.31;5016798;28;20034;-75
2023/12/24 00:37:55;;;;;;;15.98;2.38;;;;;;;9.27;100.00;100723.78;5014532;28;20049;-75
2023/12/24 00:40:21;;;;;;;;;;;;;;;9.28;100.00;100709.81;5016777;28;20409;-75
2023/12/24 00:42:46;;;;;;;15.00;1.70;;;;;;;9.28;100.00;100707.19;5016032;28;19928;-75
2023/12/24 00:45:12;;;;;;;15.48;1.73;;;;;;;9.28;100.00;100699.38;5018123;28;20083;-75
2023/12/24 00:47:38;;;;;;;13.18;1.95;;;;;;;9.30;100.00;100712.38;5025256;28;20037;-75
2023/12/24 00:50:09;;;;;;;11.95;2.13;;;;;;;9.30;100.00;100701.91;5032514;28;20076;-75
2023/12/24 00:52:35;;;;;;;15.23;2.33;;;;;;;9.29;100.00;100677.53;5027257;28;20072;-75
2023/12/24 00:55:01;;;;;;;9.73;2.13;;;;;;;9.28;100.00;100681.06;5015874;28;20045;-76
2023/12/24 00:57:26;;;;;;;7.90;1.65;;;;;;;9.28;100.00;100682.81;5021737;28;20287;-75
2023/12/24 00:59:52;;;;;;;7.40;2.00;;;;;;;9.28;100.00;100662.78;5035063;28;20048;-76
2023/12/24 01:02:17;;;;;;;13.95;2.03;;;;;;;9.27;100.00;100670.66;5035329;28;20045;-75
2023/12/24 01:04:43;;;;;;;15.85;2.10;;;;;;;9.25;100.00;100678.56;5035277;28;20109;-75
2023/12/24 01:07:08;;;;;;;11.85;2.42;;;;;;;9.23;100.00;100680.38;5034552;28;20112;-75
2023/12/24 01:09:35;;;;;;;15.90;2.53;;;;;;;9.23;100.00;100677.78;5035475;28;20037;-75
2023/12/24 01:12:01;;;;;;;23.33;3.85;;;;;;;9.18;100.00;100670.09;5034945;28;20080;-75
2023/12/24 01:14:26;;;;;;;16.73;2.85;;;;;;;9.17;100.00;100663.19;5035002;28;20041;-75
2023/12/24 01:16:51;;;;;;;14.73;2.47;;;;;;;9.17;100.00;100680.63;5034845;28;20037;-75
2023/12/24 01:19:17;;;;;;;15.38;3.20;;;;;;;9.15;100.00;100685.03;5034489;28;20040;-75
2023/12/24 01:21:42;;;;;;;13.50;2.35;;;;;;;9.12;100.00;100704.28;5035190;28;20026;-76
2023/12/24 01:24:07;;;;;;;18.63;2.33;;;;;;;9.11;100.00;100676.44;5034368;28;20045;-75
2023/12/24 01:26:35;;;;;;;21.08;2.88;;;;;;;9.13;100.00;100681.63;5033810;28;20103;-75
2023/12/24 01:29:00;;;;;;;18.60;3.10;;;;;;;9.12;100.00;100688.63;5024593;28;20052;-76
2023/12/24 01:31:27;;;;;;;20.83;2.58;;;;;;;9.12;100.00;100672.94;5013821;28;20221;-76
2023/12/24 01:33:53;;;;;;;25.75;2.80;;;;;;;9.13;100.00;100679.00;5015094;28;20304;-75
2023/12/24 01:36:19;;;;;;;14.35;3.33;;;;;;;9.13;100.00;100676.41;5015820;28;20377;-76
2023/12/24 01:38:45;;;;;;;20.40;2.78;;;;;;;9.10;100.00;100672.16;5015148;28;20037;-76
2023/12/24 01:41:10;;;;;;;11.50;2.47;;;;;;;9.10;100.00;100655.63;5014982;28;20045;-76
2023/12/24 01:43:35;;;;;;;16.33;3.50;;;;;;;9.10;100.00;100647.81;5016920;28;20465;-76
2023/12/24 01:46:02;;;;;;;22.05;2.97;;;;;;;9.09;100.00;100633.03;5034582;28;20089;-76
2023/12/24 01:48:27;;;;;;;18.13;3.92;;;;;;;9.11;100.00;100650.31;5034859;28;20033;-76
2023/12/24 01:50:53;;;;;;;18.50;2.78;;;;;;;9.10;100.00;100639.97;5034445;28;20696;-76
2023/12/24 01:53:18;;;;;;;14.32;2.17;;;;;;;9.12;100.00;100638.13;5034512;28;20042;-76
2023/12/24 01:55:47;;;;;;;17.73;3.22;;;;;;;9.10;100.00;100635.59;5034205;28;20415;-76
2023/12/24 01:58:12;;;;;;;;;;;;;;;9.08;100.00;100626.06;5034968;28;20033;-76
2023/12/24 02:00:38;;;;;;;15.90;3.38;;;;;;;9.07;100.00;100625.22;5034087;28;19917;-77
2023/12/24 02:03:04;;;;;;;12.43;2.47;;;;;;;9.07;100.00;100606.09;5034434;28;20221;-76
2023/12/24 02:05:30;;;;;;;15.05;2.58;;;;;;;9.07;100.00;100620.00;5033846;28;20375;-76
2023/12/24 02:07:56;;;;;;;8.75;2.05;;;;;;;9.05;100.00;100602.72;5026759;28;20073;-76
2023/12/24 02:10:22;;;;;;;11.90;2.45;;;;;;;9.04;100.00;100591.41;5023748;28;20100;-76
2023/12/24 02:12:48;;;;;;;12.23;2.58;;;;;;;9.03;100.00;100606.22;5034673;28;20064;-76
2023/12/24 02:15:14;;;;;;;12.43;2.10;;;;;;;9.06;100.00;100612.22;5032854;28;20037;-77
2023/12/24 02:17:42;;;;;;;11.80;1.70;;;;;;;9.03;100.00;100616.66;5034101;28;20041;-77
2023/12/24 02:20:07;;;;;;;6.90;1.73;;;;;;;9.03;100.00;100600.16;5033490;28;20075;-76
2023/12/24 02:22:33;;;;;;;11.43;2.38;;;;;;;9.03;100.00;100602.75;5034093;28;20037;-76
2023/12/24 02:24:58;;;;;;;13.82;1.80;;;;;;;9.02;100.00;100596.69;5032471;28;20506;-77
2023/12/24 02:27:23;;;;;;;8.70;1.67;;;;;;;9.03;100.00;100592.31;5034404;28;20049;-76
2023/12/24 02:29:55;;;;;;;13.57;1.63;;;;;;;9.06;100.00;100609.63;5034380;28;20279;-77
2023/12/24 02:32:22;;;;;;;4.22;0.98;;;;;;;9.09;100.00;100596.44;5014955;28;20272;-77
2023/12/24 02:34:49;;;;;;;5.28;1.40;;;;;;;9.06;100.00;100597.44;5014241;28;20065;-77
2023/12/24 02:37:14;;;;;;;11.73;1.48;;;;;;;9.07;100.00;100595.66;5014478;28;20042;-77
2023/12/24 02:39:41;;;;;;;6.38;1.10;;;;;;;9.05;100.00;100581.81;5013840;28;20038;-77
2023/12/24 02:42:07;;;;;;;6.88;1.30;;;;;;;9.06;100.00;100580.88;5026829;28;20048;-77
2023/12/24 02:44:34;;;;;;;5.53;1.40;;;;;;;9.08;100.00;100560.78;5032172;28;20041;-77
2023/12/24 02:47:00;;;;;;;7.80;1.42;;;;;;;9.09;100.00;100570.31;5032952;28;20045;-78
2023/12/24 02:49:26;;;;;;;3.70;1.20;;;;;;;9.09;100.00;100555.50;5032607;28;20393;-77
2023/12/24 02:51:51;;;;;;;5.00;0.90;;;;;;;9.10;100.00;100544.16;5032917;28;20375;-77
2023/12/24 02:54:16;;;;;;;3.03;1.00;;;;;;;9.11;100.00;100542.38;5032696;28;20320;-77
2023/12/24 02:56:42;;;;;;;7.30;1.55;;;;;;;9.14;100.00;100560.56;5033064;28;20257;-77
2023/12/24 02:59:07;;;;;;;9.48;1.48;;;;;;;9.13;100.00;100545.78;5032929;28;20124;-77
2023/12/24 03:01:32;;;;;;;14.82;1.67;;;;;;;9.15;100.00;100549.16;5029762;28;20248;-77
2023/12/24 03:03:59;;;;;;;5.43;1.80;;;;;;;9.18;100.00;100531.59;5014098;28;20324;-77
2023/12/24 03:06:24;;;;;;;8.48;1.33;;;;;;;9.21;100.00;100531.50;5014587;28;20046;-77
2023/12/24 03:08:49;;;;;;;13.38;1.45;;;;;;;9.24;100.00;100535.78;5016067;28;20052;-77
2023/12/24 03:11:15;;;;;;;9.27;1.48;;;;;;;9.25;100.00;100540.06;5033147;28;20036;-77
2023/12/24 03:13:40;;;;;;;10.73;1.98;;;;;;;9.27;100.00;100540.00;5031094;28;20265;-77
2023/12/24 03:16:05;;;;;;;10.85;2.22;;;;;;;9.28;100.00;100531.25;5033332;28;20083;-77
2023/12/24 03:18:31;;;;;;;12.18;2.20;;;;;;;9.28;100.00;100529.50;5033556;28;20336;-76
2023/12/24 03:20:57;;;;;;;14.98;2.17;;;;;;;9.29;100.00;100509.44;5033002;28;20403;-76
2023/12/24 03:23:22;;;;;;;10.07;1.58;;;;;;;9.31;100.00;100523.28;5031870;28;20091;-77
2023/12/24 03:25:47;;;;;;;12.68;2.17;;;;;;;9.31;100.00;100511.06;5033410;28;20053;-76
2023/12/24 03:28:13;;;;;;;13.80;2.10;;;;;;;9.29;100.00;100515.50;5021093;28;20041;-77
2023/12/24 03:30:38;;;;;;;14.57;2.25;;;;;;;9.29;100.00;100510.28;5014442;28;20254;-78
2023/12/24 03:33:03;;;;;;;10.40;1.80;;;;;;;9.31;100.00;100518.91;5023301;28;20072;-78
2023/12/24 03:35:29;;;;;;;6.82;1.35;;;;;;;9.30;100.00;100514.59;5032487;28;20497;-78
2023/12/24 03:37:54;;;;;;;15.02;2.33;;;;;;;9.32;100.00;100514.56;5025048;28;20069;-78
2023/12/24 03:40:19;;;;;;;10.65;2.03;;;;;;;9.32;100.00;100530.22;5029771;28;20025;-78
2023/12/24 03:42:45;;;;;;;10.40;1.60;;;;;;;9.32;100.00;100523.22;5029294;28;20248;-77
2023/12/24 03:45:10;;;;;;;9.95;1.73;;;;;;;9.33;100.00;100513.63;5026714;28;20339;-78
2023/12/24 03:47:36;;;;;;;6.60;1.73;;;;;;;9.33;100.00;100501.44;5033216;28;20033;-79
2023/12/24 03:50:01;;;;;;;4.85;0.98;;;;;;;9.33;100.00;100511.00;5034763;28;20147;-78
2023/12/24 03:52:27;;;;;;;5.53;1.65;;;;;;;9.33;100.00;100519.72;5037665;28;20033;-78
2023/12/24 03:54:53;;;;;;;10.45;1.80;;;;;;;9.34;100.00;100510.09;5036797;28;20382;-78
2023/12/24 03:57:18;;;;;;;10.95;1.85;;;;;;;9.34;100.00;100497.03;5037315;28;20033;-78
2023/12/24 03:59:43;;;;;;;15.38;2.58;;;;;;;9.33;100.00;100500.56;5036449;28;20108;-78
2023/12/24 04:02:09;;;;;;;12.10;2.67;;;;;;;9.35;100.00;100503.94;5036802;28;20045;-77
2023/12/24 04:04:34;;;;;;;13.40;2.10;;;;;;;9.37;100.00;100502.16;5035586;28;20029;-78
2023/12/24 04:07:00;;;;;;;10.60;1.85;;;;;;;9.37;100.00;100505.59;5036530;28;20037;-78
2023/12/24 04:09:26;;;;;;;14.88;2.60;;;;;;;9.39;100.00;100510.78;5025476;28;20356;-78
2023/12/24 04:11:51;;;;;;;15.27;2.30;;;;;;;9.40;100.00;100507.22;5016781;28;20022;-77
2023/12/24 04:14:17;;;;;;;19.55;3.17;;;;;;;9.41;100.00;100495.88;5024648;28;20067;-77
2023/12/24 04:16:42;;;;;;;20.25;3.13;;;;;;;9.42;100.00;100487.09;5037142;28;20080;-77
2023/12/24 04:19:07;;;;;;;20.42;3.35;;;;;;;9.44;100.00;100494.88;5029798;28;20042;-77
2023/12/24 04:21:33;;;;;;;19.52;3.20;;;;;;;9.45;100.00;100496.59;5015665;28;20329;-78
2023/12/24 04:24:01;;;;;;;18.17;3.17;;;;;;;9.46;100.00;100493.06;5018351;28;20315;-78
2023/12/24 04:26:26;;;;;;;21.13;3.13;;;;;;;9.48;100.00;100486.00;5037008;28;20029;-77
2023/12/24 04:28:52;;;;;;;21.70;3.05;;;;;;;9.48;100.00;100499.06;5034079;28;20108;-78
2023/12/24 04:31:18;;;;;;;30.90;3.13;;;;;;;9.48;100.00;100489.47;5016772;28;20033;-78
2023/12/24 04:33:43;;;;;;;22.38;4.22;;;;;;;9.51;100.00;100496.34;5022553;28;20037;-78
2023/12/24 04:36:16;;;;;;;20.92;3.13;;;;;;;9.53;100.00;100494.50;5035597;28;20041;-77
2023/12/24 04:38:41;;;;;;;27.35;3.42;;;;;;;9.55;100.00;100511.84;5036388;28;20139;-78
2023/12/24 04:41:06;;;;;;;30.02;3.47;;;;;;;9.58;100.00;100487.31;5035280;28;20033;-77
2023/12/24 04:43:32;;;;;;;18.77;3.22;;;;;;;9.58;100.00;100497.78;5036504;28;20048;-77
2023/12/24 04:45:58;;;;;;;32.10;4.70;;;;;;;9.56;100.00;100504.84;5019677;28;20029;-78
2023/12/24 04:48:23;;;;;;;24.23;4.20;;;;;;;9.58;100.00;100493.38;5016691;28;20336;-78
2023/12/24 04:50:48;;;;;;;25.30;3.63;;;;;;;9.58;100.00;100508.22;5028828;28;20033;-78
2023/12/24 04:53:14;;;;;;;27.13;3.78;;;;;;;9.61;100.00;100493.28;5036103;28;20139;-78
2023/12/24 04:55:39;;;;;;;26.60;3.78;;;;;;;9.62;100.00;100488.88;5035528;28;20386;-77
2023/12/24 04:58:04;;;;;;;32.22;3.85;;;;;;;9.62;100.00;100483.66;5027496;28;20331;-78
2023/12/24 05:00:29;;;;;;;21.75;3.90;;;;;;;9.62;100.00;100486.28;5023595;28;20100;-77
2023/12/24 05:02:55;;;;;;;23.75;4.13;;;;;;;9.63;100.00;100489.75;5035481;28;20048;-78
2023/12/24 05:05:21;;;;;;;32.95;4.25;;;;;;;9.62;100.00;100496.72;5031137;28;20049;-77
2023/12/24 05:07:46;;;;;;;28.58;4.07;;;;;;;9.64;100.00;100487.09;5035609;28;20355;-78
2023/12/24 05:10:12;;;;;;;39.00;4.63;;;;;;;9.63;100.00;100482.75;5033569;28;20052;-78
2023/12/24 05:12:37;;;;;;;33.28;5.07;;;;;;;9.64;100.00;100483.59;5035595;28;20045;-78
2023/12/24 05:15:02;;;;;;;24.77;4.13;;;;;;;9.66;100.00;100471.31;5035088;28;20029;-78
2023/12/24 05:17:28;;;;;;;29.45;4.63;;;;;;;9.67;100.00;100471.25;5035873;28;20104;-78
2023/12/24 05:19:53;;;;;;;27.75;3.85;;;;;;;9.68;100.00;100469.47;5035415;28;20053;-78
2023/12/24 05:22:20;;;;;;;39.08;4.47;;;;;;;9.68;100.00;100464.25;5035270;28;20037;-77
2023/12/24 05:24:45;;;;;;;29.55;3.92;;;;;;;9.68;100.00;100488.66;5035390;28;20339;-78
2023/12/24 05:27:10;;;;;;;37.97;3.85;;;;;;;9.68;100.00;100467.72;5035440;28;20033;-78
2023/12/24 05:29:36;;;;;;;32.67;4.93;;;;;;;9.69;100.00;100463.34;5035758;28;20037;-78
2023/12/24 05:32:02;;;;;;;52.08;5.53;;;;;;;9.71;100.00;100466.72;5023548;28;20061;-78
2023/12/24 05:34:27;;;;;;;34.38;4.13;;;;;;;9.71;100.00;100456.28;5030431;28;20359;-78
2023/12/24 05:36:52;;;;;;;32.08;4.03;;;;;;;9.70;100.00;100468.50;5034418;28;20052;-77
2023/12/24 05:39:18;;;;;;;35.03;4.65;;;;;;;9.73;100.00;100463.16;5035705;28;20037;-78
2023/12/24 05:41:47;;;;;;;30.15;3.88;;;;;;;9.74;100.00;100457.00;5035076;28;20057;-77
2023/12/24 05:44:12;;;;;;;29.77;3.90;;;;;;;9.74;100.00;100459.59;5034939;28;20101;-77
2023/12/24 05:46:37;;;;;;;24.40;4.30;;;;;;;9.72;100.00;100450.97;5035344;28;20398;-78
2023/12/24 05:49:03;;;;;;;39.72;5.68;;;;;;;9.74;100.00;100443.91;5034812;28;20041;-77
2023/12/24 05:51:28;;;;;;;29.83;3.97;;;;;;;9.77;100.00;100450.78;5035294;28;20092;-77
2023/12/24 05:53:54;;;;;;;33.95;4.15;;;;;;;9.77;100.00;100477.78;5034414;28;20336;-78
2023/12/24 05:56:19;;;;;;;32.53;4.03;;;;;;;9.77;100.00;100446.41;5035016;28;20202;-77
2023/12/24 05:58:44;;;;;;;31.00;3.58;;;;;;;9.80;100.00;100451.50;5015519;28;20069;-77
2023/12/24 06:01:10;;;;;;;26.63;4.22;;;;;;;9.83;100.00;100439.22;5014582;28;20097;-77
2023/12/24 06:03:36;;;;;;;37.20;4.28;;;;;;;9.83;100.00;100403.44;5015034;28;20280;-78
2023/12/24 06:06:01;;;;;;;25.25;3.65;;;;;;;9.83;100.00;100433.97;5014714;28;20053;-77
2023/12/24 06:08:26;;;;;;;20.75;4.30;;;;;;;9.86;100.00;100431.22;5026191;28;20058;-77
2023/12/24 06:10:52;;;;;;;28.90;3.88;;;;;;;9.87;100.00;100432.91;5031235;28;20565;-77
2023/12/24 06:13:17;;;;;;;38.90;4.07;;;;;;;9.89;100.00;100420.63;5016577;28;20069;-77
2023/12/24 06:15:42;;;;;;;31.40;4.93;;;;;;;9.91;100.00;100418.78;5014860;28;20045;-77
2023/12/24 06:18:09;;;;;;;25.58;3.45;;;;;;;9.93;100.00;100411.72;5014719;28;20402;-77
2023/12/24 06:20:36;;;;;;;37.00;4.80;;;;;;;9.93;100.00;100427.41;5013525;28;20048;-77
2023/12/24 06:23:02;;;;;;;27.35;3.40;;;;;;;9.95;100.00;100420.34;5014515;28;20033;-78
2023/12/24 06:25:27;;;;;;;27.45;3.35;;;;;;;9.96;100.00;100416.81;5014932;28;20284;-77
2023/12/24 06:27:53;;;;;;;38.20;4.13;;;;;;;9.98;100.00;100448.97;5014190;28;20199;-77
2023/12/24 06:30:20;;;;;;;18.70;2.80;;;;;;;9.99;100.00;100440.22;5014484;28;20097;-77
2023/12/24 06:32:46;;;;;;;25.45;4.03;;;;;;;10.00;100.00;100439.28;5013432;28;20030;-77
2023/12/24 06:35:12;;;;;;;33.70;4.72;;;;;;;10.01;100.00;100443.63;5014239;28;20067;-78
2023/12/24 06:37:38;;;;;;;27.55;4.05;;;;;;;10.03;100.00;100441.78;5012903;28;20064;-77
2023/12/24 06:40:04;;;;;;;22.65;3.28;;;;;;;10.04;100.00;100440.88;5014502;28;20270;-77
2023/12/24 06:42:30;;;;;;;26.65;4.30;;;;;;;10.04;100.00;100445.25;5009449;28;20355;-77
2023/12/24 06:44:55;;;;;;;;;;;;;;;10.05;100.00;100428.63;5005958;28;20144;-77
2023/12/24 06:47:20;;;;;;;32.07;4.00;;;;;;;10.05;100.00;100444.34;5009466;28;20339;-77
2023/12/24 06:49:46;;;;;;;23.50;3.75;;;;;;;10.04;100.00;100433.03;5027802;28;20660;-77
2023/12/24 06:52:11;;;;;;;29.13;3.97;;;;;;;10.03;100.00;100430.47;5033938;28;20140;-77
2023/12/24 06:54:37;;;;;;;28.15;5.05;;;;;;;10.05;100.00;100426.88;5021994;28;20034;-77
2023/12/24 06:57:03;;;;;;;35.67;4.13;;;;;;;10.06;100.00;100441.66;5016681;28;20371;-77
2023/12/24 06:59:29;;;;;;;28.85;4.18;;;;;;;10.07;100.00;100442.50;5024417;28;20528;-77
2023/12/24 07:01:54;;;;;;;27.67;4.40;;;;;;;10.07;100.00;100435.50;5025791;28;20029;-77
2023/12/24 07:04:19;;;;;;;26.63;3.97;;;;;;;10.09;100.00;100438.88;5033683;28;20033;-77
2023/12/24 07:06:45;;;;;;;30.88;5.13;;;;;;;10.08;100.00;100428.50;5030385;28;20046;-77
2023/12/24 07:09:11;;;;;;;31.70;4.75;;;;;;;10.09;100.00;100432.81;5017982;28;20041;-77
2023/12/24 07:11:36;;;;;;;33.47;4.57;;;;;;;10.10;100.00;100422.28;5033861;28;20034;-78
2023/12/24 07:14:01;;;;;;;34.60;5.35;;;;;;;10.10;100.00;100437.13;5032484;28;20029;-77
2023/12/24 07:16:27;;;;;;;31.13;4.35;;;;;;;10.11;100.00;100438.81;5033754;28;20037;-77
2023/12/24 07:18:52;;;;;;;22.52;4.63;;;;;;;10.08;100.00;100431.97;5033318;28;20302;-77
2023/12/24 07:21:17;;;;;;;28.20;4.28;;;;;;;10.07;100.00;100429.41;5033169;28;20037;-77
2023/12/24 07:23:43;;;;;;;19.80;3.30;;;;;;;10.06;100.00;100422.47;5034439;28;20041;-78
2023/12/24 07:26:08;;;;;;;16.88;3.75;;;;;;;10.03;100.00;100422.63;5035571;28;20094;-77
2023/12/24 07:28:34;;;;;;;16.80;3.30;;;;;;;10.02;100.00;100416.53;5037744;28;20032;-78
2023/12/24 07:31:00;;;;;;;26.48;3.50;;;;;;;10.01;100.00;100424.47;5023131;28;20242;-78
2023/12/24 07:33:25;;;;;;;16.67;2.90;;;;;;;9.99;100.00;100424.53;5018078;28;20049;-77
2023/12/24 07:35:50;;;;;;;24.25;2.97;;;;;;;10.01;100.00;100411.41;5017882;28;20042;-78
2023/12/24 07:38:16;;;;;;;21.52;3.42;;;;;;;9.99;100.00;100422.75;5017867;28;20108;-77
2023/12/24 07:40:41;;;;;;;18.20;3.22;;;;;;;9.99;100.00;100419.31;5026780;28;20038;-78
2023/12/24 07:43:06;;;;;;;21.67;3.28;;;;;;;10.01;100.00;100424.47;5036218;28;20105;-77
2023/12/24 07:45:32;;;;;;;19.90;2.97;;;;;;;10.04;100.00;100422.56;5033285;28;20376;-78
2023/12/24 07:47:57;;;;;;;25.92;3.63;;;;;;;10.03;100.00;100420.84;5017387;28;20375;-77
2023/12/24 07:50:22;;;;;;;27.02;3.72;;;;;;;10.04;100.00;100421.69;5018786;28;20034;-78
2023/12/24 07:52:48;;;;;;;22.75;4.15;;;;;;;10.03;100.00;100415.63;5031352;28;20030;-78
2023/12/24 07:55:13;;;;;;;29.27;3.90;;;;;;;10.04;100.00;100406.00;5015624;28;20037;-78
2023/12/24 07:57:38;;;;;;;33.33;4.70;;;;;;;10.04;100.00;100403.38;5035884;28;20045;-78
2023/12/24 08:00:07;;;;;;;29.65;4.32;;;;;;;10.02;100.00;100392.97;5036459;28;20047;-78
2023/12/24 08:02:33;;;;;;;32.13;4.88;;;;;;;10.03;100.00;100393.84;5035222;28;20036;-78
2023/12/24 08:04:59;;;;;;;35.95;4.53;;;;;;;10.05;100.00;100403.31;5036755;28;20094;-78
2023/12/24 08:07:24;;;;;;;34.58;3.92;;;;;;;10.05;100.00;100410.31;5036452;28;20044;-77
2023/12/24 08:09:50;;;;;;;26.45;4.45;;;;;;;10.07;100.00;100398.84;5022451;28;20045;-78
2023/12/24 08:12:15;;;;;;;31.77;4.47;;;;;;;10.11;100.00;100415.28;5017223;28;20072;-78
2023/12/24 08:14:41;;;;;;;23.73;4.30;;;;;;;10.14;100.00;100409.91;5015302;28;20041;-78
2023/12/24 08:17:06;;;;;;;34.83;4.30;;;;;;;10.16;100.00;100395.81;5026142;28;20052;-77
2023/12/24 08:19:31;;;;;;;36.90;4.40;;;;;;;10.17;100.00;100433.31;5030949;28;20126;-77
2023/12/24 08:21:57;;;;;;;28.65;4.22;;;;;;;10.17;100.00;100407.16;5027842;28;20335;-77
2023/12/24 08:24:22;;;;;;;35.42;3.95;;;;;;;10.18;100.00;100414.06;5024502;28;20060;-78
2023/12/24 08:26:48;;;;;;;54.92;6.90;;;;;;;10.17;100.00;100410.63;5029588;28;20333;-77
2023/12/24 08:29:13;;;;;;;35.83;5.85;;;;;;;10.17;100.00;100405.38;5036274;28;20287;-78
2023/12/24 08:31:39;;;;;;;41.38;5.15;;;;;;;10.18;100.00;100414.06;5032354;28;20036;-78
2023/12/24 08:34:04;;;;;;;35.03;4.80;;;;;;;10.21;100.00;100407.88;5032780;28;20095;-78
2023/12/24 08:36:29;;;;;;;37.45;4.55;;;;;;;10.21;100.00;100429.66;5030517;28;20231;-78
2023/12/24 08:38:55;;;;;;;33.33;5.68;;;;;;;10.23;100.00;100406.03;5029431;28;20385;-78
2023/12/24 08:41:20;;;;;;;33.97;4.20;;;;;;;10.24;100.00;100411.19;5025320;28;20026;-77
2023/12/24 08:43:45;;;;;;;29.50;4.07;;;;;;;10.23;100.00;100406.03;5030554;28;20489;-77
2023/12/24 08:46:11;;;;;;;37.83;3.70;;;;;;;10.25;100.00;100418.09;5033862;28;20033;-77
2023/12/24 08:48:37;;;;;;;42.78;4.22;;;;;;;10.26;100.00;100409.34;5024006;28;20049;-78
2023/12/24 08:51:03;;;;;;;34.70;5.80;;;;;;;10.28;100.00;100419.75;5024355;28;20036;-77
2023/12/24 08:53:28;;;;;;;33.38;4.70;;;;;;;10.28;100.00;100417.97;5024521;28;20120;-78
2023/12/24 08:55:54;;;;;;;24.40;3.92;;;;;;;10.30;100.00;100408.28;5025142;28;20364;-78
2023/12/24 08:58:19;;;;;;;31.50;4.20;;;;;;;10.31;100.00;100415.22;5025034;28;20056;-78
2023/12/24 09:00:44;;;;;;;36.78;4.60;;;;;;;10.33;100.00;100394.22;5024448;28;20326;-77
2023/12/24 09:03:10;;;;;;;38.70;4.57;;;;;;;10.32;100.00;100385.53;5024833;28;20041;-77
2023/12/24 09:05:35;;;;;;;36.00;5.38;;;;;;;10.35;100.00;100382.78;5021711;28;20047;-77
2023/12/24 09:08:00;;;;;;;45.95;5.30;;;;;;;10.35;100.00;100388.00;5023775;28;20100;-77
2023/12/24 09:10:26;;;;;;;31.80;5.25;;;;;;;10.38;100.00;100390.47;5026125;28;20026;-77
2023/12/24 09:12:51;;;;;;;32.03;4.90;;;;;;;10.40;100.00;100397.41;5025810;28;20033;-77
2023/12/24 09:15:17;;;;;;;56.67;5.90;;;;;;;10.42;100.00;100379.84;5033789;28;20100;-77
2023/12/24 09:17:43;;;;;;;47.28;6.30;;;;;;;10.42;100.00;100409.50;5027839;28;20557;-77
2023/12/24 09:20:09;;;;;;;41.10;5.53;;;;;;;10.46;100.00;100395.38;5032908;28;20033;-77
2023/12/24 09:22:34;;;;;;;35.30;4.63;;;;;;;10.46;100.00;100392.75;5035902;28;20240;-77
2023/12/24 09:25:00;;;;;;;46.80;5.97;;;;;;;10.49;100.00;100403.06;5037142;28;20398;-77
2023/12/24 09:27:25;;;;;;;46.90;5.70;;;;;;;10.50;100.00;100382.97;5035317;28;20040;-77
2023/12/24 09:29:51;;;;;;;41.72;6.57;;;;;;;10.50;100.00;100385.59;5032880;28;20064;-77
2023/12/24 09:32:16;;;;;;;36.83;5.50;;;;;;;10.52;100.00;100383.75;5034829;28;20252;-77
2023/12/24 09:34:43;;;;;;;47.40;5.82;;;;;;;10.53;100.00;100381.06;5034413;28;20056;-77
2023/12/24 09:37:09;;;;;;;38.67;4.57;;;;;;;10.56;100.00;100377.44;5034532;28;20136;-77
2023/12/24 09:39:34;;;;;;;45.25;5.30;;;;;;;10.56;100.00;100378.28;5034578;28;20208;-77
2023/12/24 09:41:59;;;;;;;39.75;7.03;;;;;;;10.59;100.00;100384.28;5034265;28;20033;-77
2023/12/24 09:44:26;;;;;;;37.65;6.32;;;;;;;10.61;100.00;100387.72;5029416;28;20260;-77
2023/12/24 09:46:52;;;;;;;43.00;6.28;;;;;;;10.60;100.00;100397.31;5033790;28;20100;-77
2023/12/24 09:49:17;;;;;;;41.40;6.05;;;;;;;10.60;100.00;100393.84;5028941;28;20318;-77
2023/12/24 09:51:43;;;;;;;49.17;6.07;;;;;;;10.61;100.00;100385.09;5008208;28;20032;-77
2023/12/24 09:54:09;;;;;;;47.97;5.93;;;;;;;10.60;100.00;100380.75;5015000;28;20044;-77
2023/12/24 09:56:34;;;;;;;44.00;5.65;;;;;;;10.59;100.00;100400.88;5014468;28;20101;-77
2023/12/24 09:59:00;;;;;;;38.78;5.45;;;;;;;10.61;100.00;100401.63;5016314;28;20123;-77
2023/12/24 10:01:25;;;;;;;46.17;6.55;;;;;;;10.62;100.00;100397.25;5033543;28;20037;-77
2023/12/24 10:03:51;;;;;;;48.80;7.90;;;;;;;10.63;100.00;100412.03;5029827;28;20377;-77
2023/12/24 10:06:17;;;;;;;32.53;4.75;;;;;;;10.63;100.00;100405.03;5031411;28;20069;-77
2023/12/24 10:08:43;;;;;;;38.78;5.57;;;;;;;10.65;100.00;100425.91;5033537;28;20043;-77
2023/12/24 10:11:17;;;;;;;35.92;5.25;;;;;;;10.66;100.00;100419.72;5031664;28;20036;-77
2023/12/24 10:13:44;;;;;;;35.83;5.30;;;;;;;10.65;100.00;100425.91;5018564;28;20061;-77
2023/12/24 10:16:09;;;;;;;43.00;5.70;;;;;;;10.62;100.00;100403.31;5025181;28;20142;-78
2023/12/24 10:18:35;;;;;;;35.45;5.05;;;;;;;10.61;100.00;100403.41;5026467;28;20099;-77
2023/12/24 10:21:10;;;;;;;32.03;4.60;;;;;;;10.59;100.00;100406.09;5022315;28;20044;-78
2023/12/24 10:23:36;;;;;;;35.80;5.60;;;;;;;10.58;100.00;100404.38;5015015;28;20344;-78
2023/12/24 10:26:06;;;;;;;21.55;3.40;;;;;;;10.60;100.00;100399.94;5023849;28;20029;-78
2023/12/24 10:28:33;;;;;;;21.75;3.92;;;;;;;10.57;100.00;100406.16;5024813;28;20124;-78
2023/12/24 10:31:09;;;;;;;26.75;4.07;;;;;;;10.56;100.00;100391.38;5032931;28;20040;-78
2023/12/24 10:33:36;;;;;;;29.42;4.78;;;;;;;10.54;100.00;100385.34;5033295;28;20104;-78
2023/12/24 10:36:02;;;;;;;43.30;4.72;;;;;;;10.52;100.00;100384.59;5028722;28;20025;-78
2023/12/24 10:38:27;;;;;;;26.35;4.43;;;;;;;10.52;100.00;100381.97;5027410;28;20334;-78
2023/12/24 10:40:53;;;;;;;33.40;3.78;;;;;;;10.53;100.00;100393.28;5039028;28;20048;-78
2023/12/24 10:43:18;;;;;;;17.42;3.50;;;;;;;10.52;100.00;100399.47;5037415;28;20336;-77
2023/12/24 10:45:45;;;;;;;23.85;4.28;;;;;;;10.51;100.00;100393.38;5030874;28;20367;-78
2023/12/24 10:48:10;;;;;;;23.92;4.10;;;;;;;10.52;100.00;100395.06;5030661;28;20128;-78
2023/12/24 10:50:36;;;;;;;24.10;4.55;;;;;;;10.53;100.00;100385.44;5031009;28;20469;-78
2023/12/24 10:53:01;;;;;;;31.27;4.00;;;;;;;10.53;100.00;100370.59;5036325;28;20041;-78
2023/12/24 10:55:30;;;;;;;24.05;4.22;;;;;;;10.54;100.00;100363.56;5042481;28;20473;-78
2023/12/24 10:58:07;;;;;;;35.22;5.72;;;;;;;10.52;100.00;100355.78;5041839;28;20029;-78
2023/12/24 11:00:32;;;;;;;34.22;6.05;;;;;;;10.53;100.00;100359.25;5042525;28;20029;-78
2023/12/24 11:02:59;;;;;;;24.05;4.68;;;;;;;10.53;100.00;100351.38;5041359;28;20844;-78
2023/12/24 11:05:39;;;;;;;26.63;4.43;;;;;;;10.55;100.00;100345.19;5042903;28;20041;-78
2023/12/24 11:08:05;;;;;;;32.20;5.18;;;;;;;10.54;100.00;100343.47;5042556;28;20044;-78
2023/12/24 11:10:41;;;;;;;25.73;4.18;;;;;;;10.52;100.00;100342.69;5044302;28;20032;-78